sensor_id;sensor_type;location;lat;lon;timestamp;pressure;altitude;pressure_sealevel;temperature;humidity
28927;BME280;16038;47.692;9.400;2023-12-22T00:01:12;95514.03;;;7.02;100.00
28927;BME280;16038;47.692;9.400;2023-12-22T00:03:41;95540.13;;;7.03;100.00
28927;BME280;16038;47.692;9.400;2023-12-22T00:06:07;95531.22;;;7.06;100.00
28927;BME280;16038;47.692;9.400;2023-12-22T00:08:32;95522.34;;;7.16;100.00
28927;BME280;16038;47.692;9.400;2023-12-22T00:10:57;95536.34;;;7.15;100.00
28927;BME280;16038;47.692;9.400;2023-12-22T00:13:23;95529.78;;;7.19;100.00
28927;BME280;16038;47.692;9.400;2023-12-22T00:15:48;95509.59;;;7.20;100.00
28927;BME280;16038;47.692;9.400;2023-12-22T00:18:13;95507.28;;;7.22;100.00
28927;BME280;16038;47.692;9.400;2023-12-22T00:20:39;95533.78;;;7.29;100.00
28927;BME280;16038;47.692;9.400;2023-12-22T00:23:04;95534.56;;;7.30;100.00
28927;BME280;16038;47.692;9.400;2023-12-22T00:25:30;95529.53;;;7.32;100.00
28927;BME280;16038;47.692;9.400;2023-12-22T00:27:55;95543.88;;;7.28;100.00
28927;BME280;16038;47.692;9.400;2023-12-22T00:30:20;95539.94;;;7.22;100.00
28927;BME280;16038;47.692;9.400;2023-12-22T00:32:46;95547.31;;;7.22;100.00
28927;BME280;16038;47.692;9.400;2023-12-22T00:35:11;95552.75;;;7.22;100.00
28927;BME280;16038;47.692;9.400;2023-12-22T00:37:36;95538.66;;;7.13;100.00
28927;BME280;16038;47.692;9.400;2023-12-22T00:40:02;95566.03;;;6.93;100.00
28927;BME280;16038;47.692;9.400;2023-12-22T00:42:32;95553.78;;;6.76;100.00
28927;BME280;16038;47.692;9.400;2023-12-22T00:44:57;95571.22;;;6.72;100.00
28927;BME280;16038;47.692;9.400;2023-12-22T00:47:22;95573.13;;;6.67;100.00
28927;BME280;16038;47.692;9.400;2023-12-22T00:49:48;95553.66;;;6.65;100.00
28927;BME280;16038;47.692;9.400;2023-12-22T00:52:13;95584.72;;;6.64;100.00
28927;BME280;16038;47.692;9.400;2023-12-22T00:54:39;95570.31;;;6.60;100.00
28927;BME280;16038;47.692;9.400;2023-12-22T00:57:04;95578.81;;;6.59;100.00
28927;BME280;16038;47.692;9.400;2023-12-22T00:59:30;95588.53;;;6.56;100.00
28927;BME280;16038;47.692;9.400;2023-12-22T01:01:55;95590.78;;;6.50;100.00
28927;BME280;16038;47.692;9.400;2023-12-22T01:04:20;95609.03;;;6.50;100.00
28927;BME280;16038;47.692;9.400;2023-12-22T01:06:46;95603.59;;;6.50;100.00
28927;BME280;16038;47.692;9.400;2023-12-22T01:09:11;95612.91;;;6.49;100.00
28927;BME280;16038;47.692;9.400;2023-12-22T01:11:37;95615.50;;;6.42;100.00
28927;BME280;16038;47.692;9.400;2023-12-22T01:14:02;95615.56;;;6.45;100.00
28927;BME280;16038;47.692;9.400;2023-12-22T01:16:27;95625.31;;;6.46;100.00
28927;BME280;16038;47.692;9.400;2023-12-22T01:18:53;95612.06;;;6.45;100.00
28927;BME280;16038;47.692;9.400;2023-12-22T01:21:19;95618.66;;;6.44;100.00
28927;BME280;16038;47.692;9.400;2023-12-22T01:23:44;95610.91;;;6.46;100.00
28927;BME280;16038;47.692;9.400;2023-12-22T01:26:09;95603.16;;;6.48;100.00
28927;BME280;16038;47.692;9.400;2023-12-22T01:28:35;95600.81;;;6.46;100.00
28927;BME280;16038;47.692;9.400;2023-12-22T01:31:01;95615.16;;;6.43;100.00
28927;BME280;16038;47.692;9.400;2023-12-22T01:33:26;95619.47;;;6.48;100.00
28927;BME280;16038;47.692;9.400;2023-12-22T01:35:51;95616.81;;;6.51;100.00
28927;BME280;16038;47.692;9.400;2023-12-22T01:38:17;95616.75;;;6.48;100.00
28927;BME280;16038;47.692;9.400;2023-12-22T01:40:42;95617.56;;;6.48;100.00
28927;BME280;16038;47.692;9.400;2023-12-22T01:43:08;95634.59;;;6.45;100.00
28927;BME280;16038;47.692;9.400;2023-12-22T01:45:33;95639.22;;;6.41;100.00
28927;BME280;16038;47.692;9.400;2023-12-22T01:47:59;95644.06;;;6.28;100.00
28927;BME280;16038;47.692;9.400;2023-12-22T01:50:25;95646.84;;;6.32;100.00
28927;BME280;16038;47.692;9.400;2023-12-22T01:52:50;95632.50;;;6.35;100.00
28927;BME280;16038;47.692;9.400;2023-12-22T01:55:16;95629.66;;;6.28;100.00
28927;BME280;16038;47.692;9.400;2023-12-22T01:57:43;95629.97;;;6.23;100.00
28927;BME280;16038;47.692;9.400;2023-12-22T02:00:09;95618.97;;;6.16;100.00
28927;BME280;16038;47.692;9.400;2023-12-22T02:02:36;95621.69;;;6.16;100.00
28927;BME280;16038;47.692;9.400;2023-12-22T02:05:04;95625.16;;;6.12;100.00
28927;BME280;16038;47.692;9.400;2023-12-22T02:07:30;95619.63;;;6.05;100.00
28927;BME280;16038;47.692;9.400;2023-12-22T02:09:56;95637.19;;;6.11;100.00
28927;BME280;16038;47.692;9.400;2023-12-22T02:12:22;95630.97;;;6.11;100.00
28927;BME280;16038;47.692;9.400;2023-12-22T02:14:47;95653.06;;;6.09;100.00
28927;BME280;16038;47.692;9.400;2023-12-22T02:17:31;95656.75;;;6.21;100.00
28927;BME280;16038;47.692;9.400;2023-12-22T02:19:58;95654.78;;;6.18;100.00
28927;BME280;16038;47.692;9.400;2023-12-22T02:22:23;95644.69;;;6.18;100.00
28927;BME280;16038;47.692;9.400;2023-12-22T02:24:49;95651.38;;;6.24;100.00
28927;BME280;16038;47.692;9.400;2023-12-22T02:27:23;95669.69;;;6.27;100.00
28927;BME280;16038;47.692;9.400;2023-12-22T02:32:59;95673.97;;;6.28;100.00
28927;BME280;16038;47.692;9.400;2023-12-22T02:35:28;95664.72;;;6.33;100.00
28927;BME280;16038;47.692;9.400;2023-12-22T02:37:56;95674.47;;;6.34;100.00
28927;BME280;16038;47.692;9.400;2023-12-22T02:40:24;95656.19;;;6.35;100.00
28927;BME280;16038;47.692;9.400;2023-12-22T02:42:51;95649.97;;;6.34;100.00
28927;BME280;16038;47.692;9.400;2023-12-22T02:45:18;95657.97;;;6.23;100.00
28927;BME280;16038;47.692;9.400;2023-12-22T02:47:45;95664.06;;;6.17;100.00
28927;BME280;16038;47.692;9.400;2023-12-22T02:50:11;95655.44;;;6.11;100.00
28927;BME280;16038;47.692;9.400;2023-12-22T02:52:39;95663.16;;;6.09;100.00
28927;BME280;16038;47.692;9.400;2023-12-22T02:55:05;95665.34;;;6.00;100.00
28927;BME280;16038;47.692;9.400;2023-12-22T02:57:30;95672.41;;;6.04;100.00
28927;BME280;16038;47.692;9.400;2023-12-22T02:59:56;95678.63;;;6.05;100.00
28927;BME280;16038;47.692;9.400;2023-12-22T03:02:22;95667.38;;;6.06;100.00
28927;BME280;16038;47.692;9.400;2023-12-22T03:04:47;95660.81;;;6.07;100.00
28927;BME280;16038;47.692;9.400;2023-12-22T03:07:13;95653.84;;;6.10;100.00
28927;BME280;16038;47.692;9.400;2023-12-22T03:09:39;95669.69;;;6.04;100.00
28927;BME280;16038;47.692;9.400;2023-12-22T03:12:06;95676.47;;;6.14;100.00
28927;BME280;16038;47.692;9.400;2023-12-22T03:14:32;95685.63;;;6.06;100.00
28927;BME280;16038;47.692;9.400;2023-12-22T03:16:59;95688.13;;;6.15;100.00
28927;BME280;16038;47.692;9.400;2023-12-22T03:19:24;95690.78;;;6.11;100.00
28927;BME280;16038;47.692;9.400;2023-12-22T03:21:50;95688.13;;;6.15;100.00
28927;BME280;16038;47.692;9.400;2023-12-22T03:24:15;95685.28;;;6.07;100.00
28927;BME280;16038;47.692;9.400;2023-12-22T03:26:41;95688.34;;;6.06;100.00
28927;BME280;16038;47.692;9.400;2023-12-22T03:29:06;95693.84;;;6.09;100.00
28927;BME280;16038;47.692;9.400;2023-12-22T03:31:31;95691.38;;;6.01;100.00
28927;BME280;16038;47.692;9.400;2023-12-22T03:33:57;95699.28;;;6.09;100.00
28927;BME280;16038;47.692;9.400;2023-12-22T03:36:22;95700.81;;;6.07;100.00
28927;BME280;16038;47.692;9.400;2023-12-22T03:38:48;95705.38;;;6.03;100.00
28927;BME280;16038;47.692;9.400;2023-12-22T03:41:13;95665.03;;;6.05;100.00
28927;BME280;16038;47.692;9.400;2023-12-22T03:43:38;95686.19;;;6.15;100.00
28927;BME280;16038;47.692;9.400;2023-12-22T03:46:04;95691.91;;;6.10;100.00
28927;BME280;16038;47.692;9.400;2023-12-22T03:48:29;95702.50;;;6.15;100.00
28927;BME280;16038;47.692;9.400;2023-12-22T03:50:55;95711.38;;;6.12;100.00
28927;BME280;16038;47.692;9.400;2023-12-22T03:53:20;95686.66;;;5.98;100.00
28927;BME280;16038;47.692;9.400;2023-12-22T03:55:45;95692.31;;;5.89;100.00
28927;BME280;16038;47.692;9.400;2023-12-22T03:58:11;95703.47;;;5.84;100.00
28927;BME280;16038;47.692;9.400;2023-12-22T04:00:36;95705.50;;;5.90;100.00
28927;BME280;16038;47.692;9.400;2023-12-22T04:03:02;95703.25;;;5.73;100.00
28927;BME280;16038;47.692;9.400;2023-12-22T04:05:28;95702.25;;;5.62;100.00
28927;BME280;16038;47.692;9.400;2023-12-22T04:07:53;95716.16;;;5.57;100.00
28927;BME280;16038;47.692;9.400;2023-12-22T04:10:19;95721.53;;;5.76;100.00
28927;BME280;16038;47.692;9.400;2023-12-22T04:12:44;95712.63;;;5.75;100.00
28927;BME280;16038;47.692;9.400;2023-12-22T04:15:10;95727.44;;;5.78;100.00
28927;BME280;16038;47.692;9.400;2023-12-22T04:17:35;95714.41;;;5.68;100.00
28927;BME280;16038;47.692;9.400;2023-12-22T04:20:01;95729.34;;;5.78;100.00
28927;BME280;16038;47.692;9.400;2023-12-22T04:22:27;95724.72;;;5.59;100.00
28927;BME280;16038;47.692;9.400;2023-12-22T04:24:52;95735.22;;;5.60;100.00
28927;BME280;16038;47.692;9.400;2023-12-22T04:27:18;95731.00;;;5.63;100.00
28927;BME280;16038;47.692;9.400;2023-12-22T04:29:43;95725.56;;;5.63;100.00
28927;BME280;16038;47.692;9.400;2023-12-22T04:32:09;95718.94;;;5.60;100.00
28927;BME280;16038;47.692;9.400;2023-12-22T04:34:34;95707.81;;;5.69;100.00
28927;BME280;16038;47.692;9.400;2023-12-22T04:37:00;95691.38;;;5.62;100.00
28927;BME280;16038;47.692;9.400;2023-12-22T04:41:51;95705.91;;;5.69;100.00
28927;BME280;16038;47.692;9.400;2023-12-22T04:44:16;95706.41;;;5.75;100.00
28927;BME280;16038;47.692;9.400;2023-12-22T04:46:41;95703.69;;;5.75;100.00
28927;BME280;16038;47.692;9.400;2023-12-22T04:49:07;95717.00;;;5.80;100.00
28927;BME280;16038;47.692;9.400;2023-12-22T04:51:32;95727.19;;;5.87;100.00
28927;BME280;16038;47.692;9.400;2023-12-22T04:53:58;95723.41;;;5.91;100.00
28927;BME280;16038;47.692;9.400;2023-12-22T04:56:23;95716.94;;;5.96;100.00
28927;BME280;16038;47.692;9.400;2023-12-22T04:58:49;95696.75;;;5.97;100.00
28927;BME280;16038;47.692;9.400;2023-12-22T05:01:15;95712.34;;;6.00;100.00
28927;BME280;16038;47.692;9.400;2023-12-22T05:03:40;95721.63;;;5.99;100.00
28927;BME280;16038;47.692;9.400;2023-12-22T05:06:06;95736.38;;;5.98;100.00
28927;BME280;16038;47.692;9.400;2023-12-22T05:08:31;95730.03;;;5.94;100.00
28927;BME280;16038;47.692;9.400;2023-12-22T05:10:56;95728.47;;;5.93;100.00
28927;BME280;16038;47.692;9.400;2023-12-22T05:13:22;95725.34;;;5.91;100.00
28927;BME280;16038;47.692;9.400;2023-12-22T05:15:47;95731.50;;;5.88;100.00
28927;BME280;16038;47.692;9.400;2023-12-22T05:18:13;95740.84;;;5.90;100.00
28927;BME280;16038;47.692;9.400;2023-12-22T05:20:38;95733.06;;;5.89;100.00
28927;BME280;16038;47.692;9.400;2023-12-22T05:23:04;95747.84;;;5.91;100.00
28927;BME280;16038;47.692;9.400;2023-12-22T05:25:29;95756.53;;;5.97;100.00
28927;BME280;16038;47.692;9.400;2023-12-22T05:27:55;95755.81;;;6.00;100.00
28927;BME280;16038;47.692;9.400;2023-12-22T05:30:20;95751.16;;;6.01;100.00
28927;BME280;16038;47.692;9.400;2023-12-22T05:32:46;95758.53;;;6.00;100.00
28927;BME280;16038;47.692;9.400;2023-12-22T05:35:11;95760.53;;;6.03;100.00
28927;BME280;16038;47.692;9.400;2023-12-22T05:37:37;95783.72;;;5.97;100.00
28927;BME280;16038;47.692;9.400;2023-12-22T05:40:03;95782.66;;;6.02;100.00
28927;BME280;16038;47.692;9.400;2023-12-22T05:42:28;95784.88;;;5.96;100.00
28927;BME280;16038;47.692;9.400;2023-12-22T05:44:53;95779.50;;;6.00;100.00
28927;BME280;16038;47.692;9.400;2023-12-22T05:47:19;95789.28;;;6.04;100.00
28927;BME280;16038;47.692;9.400;2023-12-22T05:49:44;95792.00;;;6.04;100.00
28927;BME280;16038;47.692;9.400;2023-12-22T05:52:09;95801.31;;;6.03;100.00
28927;BME280;16038;47.692;9.400;2023-12-22T05:54:37;95808.03;;;6.09;100.00
28927;BME280;16038;47.692;9.400;2023-12-22T05:57:03;95813.81;;;6.08;100.00
28927;BME280;16038;47.692;9.400;2023-12-22T05:59:32;95826.16;;;6.02;100.00
28927;BME280;16038;47.692;9.400;2023-12-22T06:01:58;95831.16;;;6.00;100.00
28927;BME280;16038;47.692;9.400;2023-12-22T06:04:24;95825.84;;;6.07;100.00
28927;BME280;16038;47.692;9.400;2023-12-22T06:06:50;95832.44;;;6.06;100.00
28927;BME280;16038;47.692;9.400;2023-12-22T06:09:15;95846.31;;;6.01;100.00
28927;BME280;16038;47.692;9.400;2023-12-22T06:11:42;95840.44;;;5.99;100.00
28927;BME280;16038;47.692;9.400;2023-12-22T06:14:08;95845.88;;;5.99;100.00
28927;BME280;16038;47.692;9.400;2023-12-22T06:16:33;95834.22;;;5.98;100.00
28927;BME280;16038;47.692;9.400;2023-12-22T06:18:58;95846.84;;;5.90;100.00
28927;BME280;16038;47.692;9.400;2023-12-22T06:21:24;95839.91;;;5.93;100.00
28927;BME280;16038;47.692;9.400;2023-12-22T06:23:50;95840.34;;;5.95;100.00
28927;BME280;16038;47.692;9.400;2023-12-22T06:26:15;95843.88;;;5.96;100.00
28927;BME280;16038;47.692;9.400;2023-12-22T06:28:41;95848.84;;;5.93;100.00
28927;BME280;16038;47.692;9.400;2023-12-22T06:31:07;95844.94;;;5.91;100.00
28927;BME280;16038;47.692;9.400;2023-12-22T06:33:33;95841.03;;;5.92;100.00
28927;BME280;16038;47.692;9.400;2023-12-22T06:35:58;95842.72;;;5.97;100.00
28927;BME280;16038;47.692;9.400;2023-12-22T06:38:23;95847.00;;;5.98;100.00
28927;BME280;16038;47.692;9.400;2023-12-22T06:40:49;95850.09;;;5.96;100.00
28927;BME280;16038;47.692;9.400;2023-12-22T06:43:15;95848.94;;;5.97;100.00
28927;BME280;16038;47.692;9.400;2023-12-22T06:45:41;95844.75;;;6.00;100.00
28927;BME280;16038;47.692;9.400;2023-12-22T06:48:07;95858.69;;;5.98;100.00
28927;BME280;16038;47.692;9.400;2023-12-22T06:50:32;95842.38;;;5.98;100.00
28927;BME280;16038;47.692;9.400;2023-12-22T06:52:57;95851.31;;;5.99;100.00
28927;BME280;16038;47.692;9.400;2023-12-22T06:55:23;95844.75;;;6.00;100.00
28927;BME280;16038;47.692;9.400;2023-12-22T06:57:49;95852.97;;;6.03;100.00
28927;BME280;16038;47.692;9.400;2023-12-22T07:00:15;95856.41;;;6.00;100.00
28927;BME280;16038;47.692;9.400;2023-12-22T07:02:40;95870.41;;;6.02;100.00
28927;BME280;16038;47.692;9.400;2023-12-22T07:07:35;95846.50;;;6.11;100.00
28927;BME280;16038;47.692;9.400;2023-12-22T07:10:00;95865.53;;;6.11;100.00
28927;BME280;16038;47.692;9.400;2023-12-22T07:12:26;95870.28;;;6.15;100.00
28927;BME280;16038;47.692;9.400;2023-12-22T07:14:51;95873.44;;;6.17;100.00
28927;BME280;16038;47.692;9.400;2023-12-22T07:17:17;95877.28;;;6.16;100.00
28927;BME280;16038;47.692;9.400;2023-12-22T07:19:42;95876.06;;;6.13;100.00
28927;BME280;16038;47.692;9.400;2023-12-22T07:22:07;95890.88;;;6.16;100.00
28927;BME280;16038;47.692;9.400;2023-12-22T07:24:33;95897.03;;;6.12;100.00
28927;BME280;16038;47.692;9.400;2023-12-22T07:26:59;95894.25;;;6.09;100.00
28927;BME280;16038;47.692;9.400;2023-12-22T07:29:24;95902.84;;;6.11;100.00
28927;BME280;16038;47.692;9.400;2023-12-22T07:31:49;95904.47;;;6.16;100.00
28927;BME280;16038;47.692;9.400;2023-12-22T07:34:16;95905.91;;;6.09;100.00
28927;BME280;16038;47.692;9.400;2023-12-22T07:36:42;95919.50;;;6.09;100.00
28927;BME280;16038;47.692;9.400;2023-12-22T07:39:08;95916.44;;;6.11;100.00
28927;BME280;16038;47.692;9.400;2023-12-22T07:41:34;95911.84;;;6.15;100.00
28927;BME280;16038;47.692;9.400;2023-12-22T07:44:00;95917.19;;;6.11;100.00
28927;BME280;16038;47.692;9.400;2023-12-22T07:46:26;95912.94;;;6.10;100.00
28927;BME280;16038;47.692;9.400;2023-12-22T07:48:53;95912.53;;;6.12;100.00
28927;BME280;16038;47.692;9.400;2023-12-22T07:51:19;95933.09;;;6.09;100.00
28927;BME280;16038;47.692;9.400;2023-12-22T07:53:45;95895.03;;;6.09;100.00
28927;BME280;16038;47.692;9.400;2023-12-22T07:56:10;95918.38;;;6.10;100.00
28927;BME280;16038;47.692;9.400;2023-12-22T07:58:36;95917.56;;;6.10;100.00
28927;BME280;16038;47.692;9.400;2023-12-22T08:01:03;95906.34;;;6.11;100.00
28927;BME280;16038;47.692;9.400;2023-12-22T08:03:28;95922.72;;;6.15;100.00
28927;BME280;16038;47.692;9.400;2023-12-22T08:05:54;95927.38;;;6.15;100.00
28927;BME280;16038;47.692;9.400;2023-12-22T08:08:19;95919.16;;;6.11;100.00
28927;BME280;16038;47.692;9.400;2023-12-22T08:10:44;95914.22;;;6.17;100.00
28927;BME280;16038;47.692;9.400;2023-12-22T08:13:10;95907.63;;;6.18;100.00
28927;BME280;16038;47.692;9.400;2023-12-22T08:15:35;95915.72;;;6.14;100.00
28927;BME280;16038;47.692;9.400;2023-12-22T08:18:01;95929.47;;;6.21;100.00
28927;BME280;16038;47.692;9.400;2023-12-22T08:20:26;95920.00;;;6.15;100.00
28927;BME280;16038;47.692;9.400;2023-12-22T08:22:51;95921.22;;;6.18;100.00
28927;BME280;16038;47.692;9.400;2023-12-22T08:25:17;95894.19;;;6.25;100.00
28927;BME280;16038;47.692;9.400;2023-12-22T08:27:45;95903.47;;;6.24;100.00
28927;BME280;16038;47.692;9.400;2023-12-22T08:30:11;95896.53;;;6.26;100.00
28927;BME280;16038;47.692;9.400;2023-12-22T08:32:37;95907.03;;;6.28;100.00
28927;BME280;16038;47.692;9.400;2023-12-22T08:35:03;95911.44;;;6.32;100.00
28927;BME280;16038;47.692;9.400;2023-12-22T08:37:31;95909.91;;;6.35;100.00
28927;BME280;16038;47.692;9.400;2023-12-22T08:39:56;95910.34;;;6.37;100.00
28927;BME280;16038;47.692;9.400;2023-12-22T08:42:23;95907.94;;;6.32;100.00
28927;BME280;16038;47.692;9.400;2023-12-22T08:44:48;95938.56;;;6.29;100.00
28927;BME280;16038;47.692;9.400;2023-12-22T08:47:14;95923.50;;;6.35;100.00
28927;BME280;16038;47.692;9.400;2023-12-22T08:49:39;95921.28;;;6.41;100.00
28927;BME280;16038;47.692;9.400;2023-12-22T08:52:05;95924.00;;;6.41;100.00
28927;BME280;16038;47.692;9.400;2023-12-22T08:54:30;95921.44;;;6.48;100.00
28927;BME280;16038;47.692;9.400;2023-12-22T08:56:56;95922.81;;;6.38;100.00
28927;BME280;16038;47.692;9.400;2023-12-22T08:59:21;95923.22;;;6.40;100.00
28927;BME280;16038;47.692;9.400;2023-12-22T09:01:47;95927.69;;;6.48;100.00
28927;BME280;16038;47.692;9.400;2023-12-22T09:04:12;95929.09;;;6.62;100.00
28927;BME280;16038;47.692;9.400;2023-12-22T09:06:38;95932.38;;;6.51;100.00
28927;BME280;16038;47.692;9.400;2023-12-22T09:09:04;95937.13;;;6.55;100.00
28927;BME280;16038;47.692;9.400;2023-12-22T09:11:30;95929.00;;;6.58;100.00
28927;BME280;16038;47.692;9.400;2023-12-22T09:13:55;95937.03;;;6.51;100.00
28927;BME280;16038;47.692;9.400;2023-12-22T09:16:22;95915.00;;;6.56;100.00
28927;BME280;16038;47.692;9.400;2023-12-22T09:18:48;95915.41;;;6.58;100.00
28927;BME280;16038;47.692;9.400;2023-12-22T09:21:13;95923.94;;;6.57;100.00
28927;BME280;16038;47.692;9.400;2023-12-22T09:23:39;95920.44;;;6.56;100.00
28927;BME280;16038;47.692;9.400;2023-12-22T09:26:04;95925.50;;;6.58;100.00
28927;BME280;16038;47.692;9.400;2023-12-22T09:28:30;95930.34;;;6.68;100.00
28927;BME280;16038;47.692;9.400;2023-12-22T09:30:55;95933.88;;;6.68;100.00
28927;BME280;16038;47.692;9.400;2023-12-22T09:33:21;95931.31;;;6.76;100.00
28927;BME280;16038;47.692;9.400;2023-12-22T09:35:48;95951.47;;;6.75;100.00
28927;BME280;16038;47.692;9.400;2023-12-22T09:38:13;95947.50;;;6.68;100.00
28927;BME280;16038;47.692;9.400;2023-12-22T09:40:41;95953.34;;;6.70;100.00
28927;BME280;16038;47.692;9.400;2023-12-22T09:43:08;95943.25;;;6.71;100.00
28927;BME280;16038;47.692;9.400;2023-12-22T09:45:34;95947.56;;;6.72;100.00
28927;BME280;16038;47.692;9.400;2023-12-22T09:48:01;95943.25;;;6.71;100.00
28927;BME280;16038;47.692;9.400;2023-12-22T09:50:30;95943.25;;;6.71;100.00
28927;BME280;16038;47.692;9.400;2023-12-22T09:52:56;95947.63;;;6.76;100.00
28927;BME280;16038;47.692;9.400;2023-12-22T09:55:22;95938.72;;;6.79;100.00
28927;BME280;16038;47.692;9.400;2023-12-22T09:57:49;95953.84;;;6.76;100.00
28927;BME280;16038;47.692;9.400;2023-12-22T10:00:15;95938.06;;;6.85;100.00
28927;BME280;16038;47.692;9.400;2023-12-22T10:02:42;95923.75;;;6.88;100.00
28927;BME280;16038;47.692;9.400;2023-12-22T10:05:08;95944.81;;;6.92;100.00
28927;BME280;16038;47.692;9.400;2023-12-22T10:07:35;95943.78;;;7.00;100.00
28927;BME280;16038;47.692;9.400;2023-12-22T10:10:02;95951.81;;;6.93;100.00
28927;BME280;16038;47.692;9.400;2023-12-22T10:12:29;95947.72;;;7.02;100.00
28927;BME280;16038;47.692;9.400;2023-12-22T10:14:56;95925.88;;;6.99;100.00
28927;BME280;16038;47.692;9.400;2023-12-22T10:17:23;95931.63;;;6.94;100.00
28927;BME280;16038;47.692;9.400;2023-12-22T10:19:49;95943.56;;;7.08;100.00
28927;BME280;16038;47.692;9.400;2023-12-22T10:22:14;95943.44;;;7.01;100.00
28927;BME280;16038;47.692;9.400;2023-12-22T10:24:46;95932.53;;;7.01;100.00
28927;BME280;16038;47.692;9.400;2023-12-22T10:27:18;95950.13;;;7.07;100.00
28927;BME280;16038;47.692;9.400;2023-12-22T10:29:54;95924.84;;;7.07;100.00
28927;BME280;16038;47.692;9.400;2023-12-22T10:32:20;95934.31;;;7.13;100.00
28927;BME280;16038;47.692;9.400;2023-12-22T10:34:46;95945.69;;;7.19;100.00
28927;BME280;16038;47.692;9.400;2023-12-22T10:37:11;95940.28;;;7.22;100.00
28927;BME280;16038;47.692;9.400;2023-12-22T10:39:40;95950.38;;;7.22;100.00
28927;BME280;16038;47.692;9.400;2023-12-22T10:42:07;95960.56;;;7.25;100.00
28927;BME280;16038;47.692;9.400;2023-12-22T10:44:33;95950.38;;;7.22;100.00
28927;BME280;16038;47.692;9.400;2023-12-22T10:47:00;95925.56;;;7.27;100.00
28927;BME280;16038;47.692;9.400;2023-12-22T10:49:26;95936.47;;;7.27;100.00
28927;BME280;16038;47.692;9.400;2023-12-22T10:51:52;95938.13;;;7.32;100.00
28927;BME280;16038;47.692;9.400;2023-12-22T10:54:19;95929.16;;;7.31;100.00
28927;BME280;16038;47.692;9.400;2023-12-22T10:56:45;95929.22;;;7.35;100.00
28927;BME280;16038;47.692;9.400;2023-12-22T10:59:10;95939.72;;;7.36;100.00
28927;BME280;16038;47.692;9.400;2023-12-22T11:01:37;95926.38;;;7.27;100.00
28927;BME280;16038;47.692;9.400;2023-12-22T11:04:07;95915.03;;;7.25;100.00
28927;BME280;16038;47.692;9.400;2023-12-22T11:06:37;95937.63;;;7.26;100.00
28927;BME280;16038;47.692;9.400;2023-12-22T11:09:07;95903.66;;;7.20;100.00
28927;BME280;16038;47.692;9.400;2023-12-22T11:11:35;95924.31;;;7.21;100.00
28927;BME280;16038;47.692;9.400;2023-12-22T11:14:01;95925.81;;;7.18;100.00
28927;BME280;16038;47.692;9.400;2023-12-22T11:16:29;95926.69;;;7.22;100.00
28927;BME280;16038;47.692;9.400;2023-12-22T11:18:55;95926.00;;;7.29;100.00
28927;BME280;16038;47.692;9.400;2023-12-22T11:21:22;95928.34;;;7.31;100.00
28927;BME280;16038;47.692;9.400;2023-12-22T11:23:49;95917.03;;;7.28;100.00
28927;BME280;16038;47.692;9.400;2023-12-22T11:26:19;95909.22;;;7.27;100.00
28927;BME280;16038;47.692;9.400;2023-12-22T11:28:46;95888.25;;;7.27;100.00
28927;BME280;16038;47.692;9.400;2023-12-22T11:31:12;95892.41;;;7.21;100.00
28927;BME280;16038;47.692;9.400;2023-12-22T11:33:43;95890.09;;;7.23;100.00
28927;BME280;16038;47.692;9.400;2023-12-22T11:36:11;95884.91;;;7.15;100.00
28927;BME280;16038;47.692;9.400;2023-12-22T11:38:37;95896.53;;;7.12;100.00
28927;BME280;16038;47.692;9.400;2023-12-22T11:41:03;95876.72;;;7.15;100.00
28927;BME280;16038;47.692;9.400;2023-12-22T11:43:31;95875.84;;;7.07;100.00
28927;BME280;16038;47.692;9.400;2023-12-22T11:46:02;95886.91;;;6.95;100.00
28927;BME280;16038;47.692;9.400;2023-12-22T11:48:29;95876.69;;;6.88;100.00
28927;BME280;16038;47.692;9.400;2023-12-22T11:50:54;95871.00;;;6.97;100.00
28927;BME280;16038;47.692;9.400;2023-12-22T11:53:21;95861.56;;;6.91;100.00
28927;BME280;16038;47.692;9.400;2023-12-22T11:56:04;95860.09;;;6.97;100.00
28927;BME280;16038;47.692;9.400;2023-12-22T11:58:44;95859.91;;;6.86;100.00
28927;BME280;16038;47.692;9.400;2023-12-22T12:01:18;95843.66;;;6.89;100.00
28927;BME280;16038;47.692;9.400;2023-12-22T12:03:51;95851.75;;;6.86;100.00
28927;BME280;16038;47.692;9.400;2023-12-22T12:08:47;95848.78;;;6.72;100.00
28927;BME280;16038;47.692;9.400;2023-12-22T12:11:14;95835.50;;;6.66;100.00
28927;BME280;16038;47.692;9.400;2023-12-22T12:13:42;95824.84;;;6.58;100.00
28927;BME280;16038;47.692;9.400;2023-12-22T12:16:10;95811.59;;;6.56;100.00
28927;BME280;16038;47.692;9.400;2023-12-22T12:18:36;95832.41;;;6.45;100.00
28927;BME280;16038;47.692;9.400;2023-12-22T12:21:01;95834.75;;;6.46;100.00
28927;BME280;16038;47.692;9.400;2023-12-22T12:23:27;95829.84;;;6.32;100.00
28927;BME280;16038;47.692;9.400;2023-12-22T12:25:56;95834.34;;;6.25;100.00
28927;BME280;16038;47.692;9.400;2023-12-22T12:28:31;95832.28;;;6.18;100.00
28927;BME280;16038;47.692;9.400;2023-12-22T12:31:03;95810.69;;;6.06;100.00
28927;BME280;16038;47.692;9.400;2023-12-22T12:33:30;95821.06;;;6.00;100.00
28927;BME280;16038;47.692;9.400;2023-12-22T12:35:58;95819.03;;;5.97;100.00
28927;BME280;16038;47.692;9.400;2023-12-22T12:38:48;95814.16;;;5.87;100.00
28927;BME280;16038;47.692;9.400;2023-12-22T12:41:29;95814.38;;;5.78;100.00
28927;BME280;16038;47.692;9.400;2023-12-22T12:43:54;95807.16;;;5.66;100.00
28927;BME280;16038;47.692;9.400;2023-12-22T12:46:21;95815.91;;;5.60;100.00
28927;BME280;16038;47.692;9.400;2023-12-22T12:48:47;95806.91;;;5.55;100.00
28927;BME280;16038;47.692;9.400;2023-12-22T12:51:12;95811.50;;;5.51;100.00
28927;BME280;16038;47.692;9.400;2023-12-22T12:53:37;95822.78;;;5.53;100.00
28927;BME280;16038;47.692;9.400;2023-12-22T12:56:03;95815.34;;;5.50;100.00
28927;BME280;16038;47.692;9.400;2023-12-22T12:58:30;95817.69;;;5.52;100.00
28927;BME280;16038;47.692;9.400;2023-12-22T13:01:07;95824.03;;;5.40;100.00
28927;BME280;16038;47.692;9.400;2023-12-22T13:03:33;95816.25;;;5.39;100.00
28927;BME280;16038;47.692;9.400;2023-12-22T13:06:08;95815.38;;;5.34;100.00